sensor_id;sensor_type;location;lat;lon;timestamp;temperature;humidity
46217;DHT22;47258;59.424;13.482;2022-10-16T00:00:41;10.80;99.90
46217;DHT22;47258;59.424;13.482;2022-10-16T00:03:08;10.80;99.90
46217;DHT22;47258;59.424;13.482;2022-10-16T00:05:39;10.80;99.90
46217;DHT22;47258;59.424;13.482;2022-10-16T00:08:07;10.70;99.90
46217;DHT22;47258;59.424;13.482;2022-10-16T00:10:34;10.70;99.90
46217;DHT22;47258;59.424;13.482;2022-10-16T00:13:02;10.70;99.90
46217;DHT22;47258;59.424;13.482;2022-10-16T00:15:29;10.70;99.90
46217;DHT22;47258;59.424;13.482;2022-10-16T00:17:58;10.60;99.90
46217;DHT22;47258;59.424;13.482;2022-10-16T00:20:24;10.60;99.90
46217;DHT22;47258;59.424;13.482;2022-10-16T00:22:51;10.60;99.90
46217;DHT22;47258;59.424;13.482;2022-10-16T00:25:19;10.60;99.90
46217;DHT22;47258;59.424;13.482;2022-10-16T00:27:45;10.60;99.90
46217;DHT22;47258;59.424;13.482;2022-10-16T00:30:12;10.60;99.90
46217;DHT22;47258;59.424;13.482;2022-10-16T00:32:39;10.60;99.90
46217;DHT22;47258;59.424;13.482;2022-10-16T00:35:08;10.60;99.90
46217;DHT22;47258;59.424;13.482;2022-10-16T00:37:35;10.60;99.90
46217;DHT22;47258;59.424;13.482;2022-10-16T00:40:02;10.60;99.90
46217;DHT22;47258;59.424;13.482;2022-10-16T00:42:29;10.60;99.90
46217;DHT22;47258;59.424;13.482;2022-10-16T00:44:57;10.60;99.90
46217;DHT22;47258;59.424;13.482;2022-10-16T00:47:27;10.60;99.90
46217;DHT22;47258;59.424;13.482;2022-10-16T00:49:59;10.50;99.90
46217;DHT22;47258;59.424;13.482;2022-10-16T00:52:30;10.50;99.90
46217;DHT22;47258;59.424;13.482;2022-10-16T00:54:57;10.50;99.90
46217;DHT22;47258;59.424;13.482;2022-10-16T00:57:25;10.50;99.90
46217;DHT22;47258;59.424;13.482;2022-10-16T00:59:52;10.50;99.90
46217;DHT22;47258;59.424;13.482;2022-10-16T01:02:19;10.50;99.90
46217;DHT22;47258;59.424;13.482;2022-10-16T01:04:48;10.50;99.90
46217;DHT22;47258;59.424;13.482;2022-10-16T01:07:27;10.50;99.90
46217;DHT22;47258;59.424;13.482;2022-10-16T01:10:06;10.50;99.90
46217;DHT22;47258;59.424;13.482;2022-10-16T01:12:40;10.50;99.90
46217;DHT22;47258;59.424;13.482;2022-10-16T01:15:11;10.40;99.90
46217;DHT22;47258;59.424;13.482;2022-10-16T01:17:45;10.50;99.90
46217;DHT22;47258;59.424;13.482;2022-10-16T01:20:24;10.40;99.90
46217;DHT22;47258;59.424;13.482;2022-10-16T01:23:03;10.40;99.90
46217;DHT22;47258;59.424;13.482;2022-10-16T01:25:52;10.40;99.90
46217;DHT22;47258;59.424;13.482;2022-10-16T01:28:28;10.40;99.90
46217;DHT22;47258;59.424;13.482;2022-10-16T01:30:59;10.40;99.90
46217;DHT22;47258;59.424;13.482;2022-10-16T01:33:33;10.40;99.90
46217;DHT22;47258;59.424;13.482;2022-10-16T01:36:07;10.30;99.90
46217;DHT22;47258;59.424;13.482;2022-10-16T01:38:38;10.30;99.90
46217;DHT22;47258;59.424;13.482;2022-10-16T01:41:08;10.30;99.90
46217;DHT22;47258;59.424;13.482;2022-10-16T01:43:41;10.30;99.90
46217;DHT22;47258;59.424;13.482;2022-10-16T01:46:10;10.30;99.90
46217;DHT22;47258;59.424;13.482;2022-10-16T01:48:39;10.20;99.90
46217;DHT22;47258;59.424;13.482;2022-10-16T01:51:08;10.30;99.90
46217;DHT22;47258;59.424;13.482;2022-10-16T01:53:37;10.20;99.90
46217;DHT22;47258;59.424;13.482;2022-10-16T01:56:08;10.20;99.90
46217;DHT22;47258;59.424;13.482;2022-10-16T01:58:41;10.30;99.90
46217;DHT22;47258;59.424;13.482;2022-10-16T02:01:10;10.30;99.90
46217;DHT22;47258;59.424;13.482;2022-10-16T02:03:40;10.30;99.90
46217;DHT22;47258;59.424;13.482;2022-10-16T02:06:08;10.30;99.90
46217;DHT22;47258;59.424;13.482;2022-10-16T02:08:36;10.30;99.90
46217;DHT22;47258;59.424;13.482;2022-10-16T02:11:04;10.40;99.90
46217;DHT22;47258;59.424;13.482;2022-10-16T02:13:34;10.40;99.90
46217;DHT22;47258;59.424;13.482;2022-10-16T02:16:06;10.40;99.90
46217;DHT22;47258;59.424;13.482;2022-10-16T02:18:33;10.50;99.90
46217;DHT22;47258;59.424;13.482;2022-10-16T02:21:05;10.50;99.90
46217;DHT22;47258;59.424;13.482;2022-10-16T02:23:37;10.50;99.90
46217;DHT22;47258;59.424;13.482;2022-10-16T02:26:09;10.50;99.90
46217;DHT22;47258;59.424;13.482;2022-10-16T02:28:43;10.50;99.90
46217;DHT22;47258;59.424;13.482;2022-10-16T02:31:16;10.50;99.90
46217;DHT22;47258;59.424;13.482;2022-10-16T02:33:45;10.60;99.90
46217;DHT22;47258;59.424;13.482;2022-10-16T02:36:13;10.60;99.90
46217;DHT22;47258;59.424;13.482;2022-10-16T02:38:40;10.60;99.90
46217;DHT22;47258;59.424;13.482;2022-10-16T02:41:08;10.60;99.90
46217;DHT22;47258;59.424;13.482;2022-10-16T02:43:35;10.60;99.90
46217;DHT22;47258;59.424;13.482;2022-10-16T02:46:02;10.50;99.90
46217;DHT22;47258;59.424;13.482;2022-10-16T02:48:30;10.50;99.90
46217;DHT22;47258;59.424;13.482;2022-10-16T02:50:57;10.50;99.90
46217;DHT22;47258;59.424;13.482;2022-10-16T02:53:24;10.50;99.90
46217;DHT22;47258;59.424;13.482;2022-10-16T02:55:51;10.50;99.90
46217;DHT22;47258;59.424;13.482;2022-10-16T02:58:18;10.40;99.90
46217;DHT22;47258;59.424;13.482;2022-10-16T03:00:45;10.40;99.90
46217;DHT22;47258;59.424;13.482;2022-10-16T03:03:12;10.30;99.90
46217;DHT22;47258;59.424;13.482;2022-10-16T03:05:40;10.30;99.90
46217;DHT22;47258;59.424;13.482;2022-10-16T03:08:07;10.30;99.90
46217;DHT22;47258;59.424;13.482;2022-10-16T03:10:34;10.30;99.90
46217;DHT22;47258;59.424;13.482;2022-10-16T03:13:01;10.30;99.90
46217;DHT22;47258;59.424;13.482;2022-10-16T03:15:28;10.20;99.90
46217;DHT22;47258;59.424;13.482;2022-10-16T03:17:56;10.20;99.90
46217;DHT22;47258;59.424;13.482;2022-10-16T03:20:23;10.20;99.90
46217;DHT22;47258;59.424;13.482;2022-10-16T03:22:52;10.10;99.90
46217;DHT22;47258;59.424;13.482;2022-10-16T03:25:19;10.10;99.90
46217;DHT22;47258;59.424;13.482;2022-10-16T03:27:46;10.10;99.90
46217;DHT22;47258;59.424;13.482;2022-10-16T03:30:13;10.00;99.90
46217;DHT22;47258;59.424;13.482;2022-10-16T03:32:40;9.90;99.90
46217;DHT22;47258;59.424;13.482;2022-10-16T03:35:07;9.90;99.90
46217;DHT22;47258;59.424;13.482;2022-10-16T03:37:34;9.90;99.90
46217;DHT22;47258;59.424;13.482;2022-10-16T03:40:03;9.80;99.90
46217;DHT22;47258;59.424;13.482;2022-10-16T03:42:30;9.90;99.90
46217;DHT22;47258;59.424;13.482;2022-10-16T03:44:57;9.90;99.90
46217;DHT22;47258;59.424;13.482;2022-10-16T03:47:24;9.90;99.90
46217;DHT22;47258;59.424;13.482;2022-10-16T03:49:51;10.00;99.90
46217;DHT22;47258;59.424;13.482;2022-10-16T03:52:18;10.00;99.90
46217;DHT22;47258;59.424;13.482;2022-10-16T03:54:44;10.00;99.90
46217;DHT22;47258;59.424;13.482;2022-10-16T03:57:13;9.90;99.90
46217;DHT22;47258;59.424;13.482;2022-10-16T03:59:40;9.80;99.90
46217;DHT22;47258;59.424;13.482;2022-10-16T04:02:06;9.80;99.90
46217;DHT22;47258;59.424;13.482;2022-10-16T04:04:33;9.70;99.90
46217;DHT22;47258;59.424;13.482;2022-10-16T04:07:01;9.70;99.90
46217;DHT22;47258;59.424;13.482;2022-10-16T04:09:27;9.70;99.90
46217;DHT22;47258;59.424;13.482;2022-10-16T04:11:54;9.70;99.90
46217;DHT22;47258;59.424;13.482;2022-10-16T04:14:23;9.60;99.90
46217;DHT22;47258;59.424;13.482;2022-10-16T04:16:50;9.60;99.90
46217;DHT22;47258;59.424;13.482;2022-10-16T04:19:17;9.60;99.90
46217;DHT22;47258;59.424;13.482;2022-10-16T04:21:44;9.60;99.90
46217;DHT22;47258;59.424;13.482;2022-10-16T04:24:10;9.70;99.90
46217;DHT22;47258;59.424;13.482;2022-10-16T04:26:37;9.60;99.90
46217;DHT22;47258;59.424;13.482;2022-10-16T04:29:04;9.60;99.90
46217;DHT22;47258;59.424;13.482;2022-10-16T04:31:33;9.60;99.90
46217;DHT22;47258;59.424;13.482;2022-10-16T04:34:00;9.60;99.90
46217;DHT22;47258;59.424;13.482;2022-10-16T04:36:27;9.60;99.90
46217;DHT22;47258;59.424;13.482;2022-10-16T04:38:54;9.70;99.90
46217;DHT22;47258;59.424;13.482;2022-10-16T04:41:22;9.70;99.90
46217;DHT22;47258;59.424;13.482;2022-10-16T04:43:48;9.70;99.90
46217;DHT22;47258;59.424;13.482;2022-10-16T04:46:15;9.80;99.90
46217;DHT22;47258;59.424;13.482;2022-10-16T04:48:44;9.80;99.90
46217;DHT22;47258;59.424;13.482;2022-10-16T04:51:12;9.80;99.90
46217;DHT22;47258;59.424;13.482;2022-10-16T04:53:39;9.80;99.90
46217;DHT22;47258;59.424;13.482;2022-10-16T04:56:06;9.90;99.90
46217;DHT22;47258;59.424;13.482;2022-10-16T04:58:33;9.90;99.90
46217;DHT22;47258;59.424;13.482;2022-10-16T05:01:00;9.90;99.90
46217;DHT22;47258;59.424;13.482;2022-10-16T05:03:27;9.90;99.90
46217;DHT22;47258;59.424;13.482;2022-10-16T05:05:55;9.90;99.90
46217;DHT22;47258;59.424;13.482;2022-10-16T05:08:22;9.90;99.90
46217;DHT22;47258;59.424;13.482;2022-10-16T05:10:49;9.90;99.90
46217;DHT22;47258;59.424;13.482;2022-10-16T05:13:16;9.90;99.90
46217;DHT22;47258;59.424;13.482;2022-10-16T05:15:46;9.90;99.90
46217;DHT22;47258;59.424;13.482;2022-10-16T05:18:13;9.90;99.90
46217;DHT22;47258;59.424;13.482;2022-10-16T05:20:41;9.90;99.90
46217;DHT22;47258;59.424;13.482;2022-10-16T05:23:09;9.90;99.90
46217;DHT22;47258;59.424;13.482;2022-10-16T05:25:37;9.90;99.90
46217;DHT22;47258;59.424;13.482;2022-10-16T05:28:04;9.90;99.90
46217;DHT22;47258;59.424;13.482;2022-10-16T05:30:31;9.90;99.90
46217;DHT22;47258;59.424;13.482;2022-10-16T05:32:58;9.80;99.90
46217;DHT22;47258;59.424;13.482;2022-10-16T05:35:25;9.80;99.90
46217;DHT22;47258;59.424;13.482;2022-10-16T05:37:52;9.80;99.90
46217;DHT22;47258;59.424;13.482;2022-10-16T05:40:21;9.80;99.90
46217;DHT22;47258;59.424;13.482;2022-10-16T05:42:48;9.80;99.90
46217;DHT22;47258;59.424;13.482;2022-10-16T05:45:15;9.80;99.90
46217;DHT22;47258;59.424;13.482;2022-10-16T05:47:42;9.80;99.90
46217;DHT22;47258;59.424;13.482;2022-10-16T05:50:09;9.80;99.90
46217;DHT22;47258;59.424;13.482;2022-10-16T05:52:36;9.90;99.90
46217;DHT22;47258;59.424;13.482;2022-10-16T05:55:03;9.90;99.90
46217;DHT22;47258;59.424;13.482;2022-10-16T05:57:31;9.90;99.90
46217;DHT22;47258;59.424;13.482;2022-10-16T05:59:58;9.90;99.90
46217;DHT22;47258;59.424;13.482;2022-10-16T06:02:25;9.90;99.90
46217;DHT22;47258;59.424;13.482;2022-10-16T06:04:52;9.90;99.90
46217;DHT22;47258;59.424;13.482;2022-10-16T06:07:20;9.90;99.90
46217;DHT22;47258;59.424;13.482;2022-10-16T06:09:48;9.90;99.90
46217;DHT22;47258;59.424;13.482;2022-10-16T06:12:15;9.80;99.90
46217;DHT22;47258;59.424;13.482;2022-10-16T06:14:44;9.80;99.90
46217;DHT22;47258;59.424;13.482;2022-10-16T06:17:12;9.80;99.90
46217;DHT22;47258;59.424;13.482;2022-10-16T06:19:39;9.80;99.90
46217;DHT22;47258;59.424;13.482;2022-10-16T06:22:07;9.70;99.90
46217;DHT22;47258;59.424;13.482;2022-10-16T06:24:34;9.70;99.90
46217;DHT22;47258;59.424;13.482;2022-10-16T06:27:00;9.60;99.90
46217;DHT22;47258;59.424;13.482;2022-10-16T06:29:27;9.60;99.90
46217;DHT22;47258;59.424;13.482;2022-10-16T06:31:56;9.60;99.90
46217;DHT22;47258;59.424;13.482;2022-10-16T06:34:23;9.60;99.90
46217;DHT22;47258;59.424;13.482;2022-10-16T06:36:50;9.60;99.90
46217;DHT22;47258;59.424;13.482;2022-10-16T06:39:17;9.60;99.90
46217;DHT22;47258;59.424;13.482;2022-10-16T06:41:43;9.60;99.90
46217;DHT22;47258;59.424;13.482;2022-10-16T06:44:10;9.60;99.90
46217;DHT22;47258;59.424;13.482;2022-10-16T06:46:37;9.60;99.90
46217;DHT22;47258;59.424;13.482;2022-10-16T06:49:05;9.60;99.90
46217;DHT22;47258;59.424;13.482;2022-10-16T06:51:32;9.60;99.90
46217;DHT22;47258;59.424;13.482;2022-10-16T06:54:01;9.70;99.90
46217;DHT22;47258;59.424;13.482;2022-10-16T06:56:30;9.70;99.90
46217;DHT22;47258;59.424;13.482;2022-10-16T06:58:57;9.80;99.90
46217;DHT22;47258;59.424;13.482;2022-10-16T07:01:24;9.80;99.90
46217;DHT22;47258;59.424;13.482;2022-10-16T07:03:51;9.90;99.90
46217;DHT22;47258;59.424;13.482;2022-10-16T07:06:22;9.90;99.90
46217;DHT22;47258;59.424;13.482;2022-10-16T07:08:49;9.90;99.90
46217;DHT22;47258;59.424;13.482;2022-10-16T07:11:17;10.10;99.90
46217;DHT22;47258;59.424;13.482;2022-10-16T07:13:46;10.10;99.90
46217;DHT22;47258;59.424;13.482;2022-10-16T07:16:14;10.30;99.90
46217;DHT22;47258;59.424;13.482;2022-10-16T07:18:42;10.60;99.90
46217;DHT22;47258;59.424;13.482;2022-10-16T07:21:12;10.60;99.90
46217;DHT22;47258;59.424;13.482;2022-10-16T07:23:41;10.60;99.90
46217;DHT22;47258;59.424;13.482;2022-10-16T07:26:09;10.60;99.90
46217;DHT22;47258;59.424;13.482;2022-10-16T07:28:37;10.60;99.90
46217;DHT22;47258;59.424;13.482;2022-10-16T07:31:07;10.60;99.90
46217;DHT22;47258;59.424;13.482;2022-10-16T07:33:36;10.60;99.90
46217;DHT22;47258;59.424;13.482;2022-10-16T07:36:05;10.60;99.90
46217;DHT22;47258;59.424;13.482;2022-10-16T07:38:32;10.70;99.90
46217;DHT22;47258;59.424;13.482;2022-10-16T07:41:02;10.80;99.90
46217;DHT22;47258;59.424;13.482;2022-10-16T07:43:30;10.80;99.90
46217;DHT22;47258;59.424;13.482;2022-10-16T07:45:57;10.80;99.90
46217;DHT22;47258;59.424;13.482;2022-10-16T07:48:27;10.80;99.90
46217;DHT22;47258;59.424;13.482;2022-10-16T07:50:57;10.90;99.90
46217;DHT22;47258;59.424;13.482;2022-10-16T07:53:24;10.90;99.90
46217;DHT22;47258;59.424;13.482;2022-10-16T07:55:52;10.90;99.90
46217;DHT22;47258;59.424;13.482;2022-10-16T07:58:20;10.90;99.90
46217;DHT22;47258;59.424;13.482;2022-10-16T08:00:47;10.90;99.90
46217;DHT22;47258;59.424;13.482;2022-10-16T08:03:14;10.90;99.90
46217;DHT22;47258;59.424;13.482;2022-10-16T08:05:41;10.90;99.90
46217;DHT22;47258;59.424;13.482;2022-10-16T08:08:12;11.00;99.90
46217;DHT22;47258;59.424;13.482;2022-10-16T08:10:40;10.90;99.90
46217;DHT22;47258;59.424;13.482;2022-10-16T08:13:07;11.00;99.90
46217;DHT22;47258;59.424;13.482;2022-10-16T08:15:35;11.10;99.90
46217;DHT22;47258;59.424;13.482;2022-10-16T08:18:04;11.30;99.90
46217;DHT22;47258;59.424;13.482;2022-10-16T08:20:32;11.40;99.90
46217;DHT22;47258;59.424;13.482;2022-10-16T08:23:00;11.50;99.90
46217;DHT22;47258;59.424;13.482;2022-10-16T08:25:27;11.60;99.90
46217;DHT22;47258;59.424;13.482;2022-10-16T08:27:54;11.70;99.90
46217;DHT22;47258;59.424;13.482;2022-10-16T08:30:23;11.70;99.90
46217;DHT22;47258;59.424;13.482;2022-10-16T08:32:52;11.80;99.90
46217;DHT22;47258;59.424;13.482;2022-10-16T08:35:19;11.90;99.90
46217;DHT22;47258;59.424;13.482;2022-10-16T08:37:46;11.90;99.90
46217;DHT22;47258;59.424;13.482;2022-10-16T08:40:18;11.90;99.90
46217;DHT22;47258;59.424;13.482;2022-10-16T08:43:03;12.00;99.90
46217;DHT22;47258;59.424;13.482;2022-10-16T08:45:38;12.00;99.90
46217;DHT22;47258;59.424;13.482;2022-10-16T08:48:16;12.10;99.90
46217;DHT22;47258;59.424;13.482;2022-10-16T08:50:44;12.10;99.90
46217;DHT22;47258;59.424;13.482;2022-10-16T08:53:16;12.20;99.90
46217;DHT22;47258;59.424;13.482;2022-10-16T08:55:46;12.20;99.90
46217;DHT22;47258;59.424;13.482;2022-10-16T08:58:17;12.20;99.90
46217;DHT22;47258;59.424;13.482;2022-10-16T09:00:47;12.20;99.90
46217;DHT22;47258;59.424;13.482;2022-10-16T09:03:23;12.20;99.90
46217;DHT22;47258;59.424;13.482;2022-10-16T09:06:10;12.20;99.90
46217;DHT22;47258;59.424;13.482;2022-10-16T09:08:47;12.20;99.90
46217;DHT22;47258;59.424;13.482;2022-10-16T09:11:23;12.20;99.90
46217;DHT22;47258;59.424;13.482;2022-10-16T09:14:01;12.20;99.90
46217;DHT22;47258;59.424;13.482;2022-10-16T09:16:32;12.30;99.90
46217;DHT22;47258;59.424;13.482;2022-10-16T09:19:10;12.30;99.90
46217;DHT22;47258;59.424;13.482;2022-10-16T09:21:41;12.30;99.90
46217;DHT22;47258;59.424;13.482;2022-10-16T09:24:13;12.30;99.90
46217;DHT22;47258;59.424;13.482;2022-10-16T09:26:40;12.30;99.90
46217;DHT22;47258;59.424;13.482;2022-10-16T09:29:10;12.30;99.90
46217;DHT22;47258;59.424;13.482;2022-10-16T09:31:38;12.30;99.90
46217;DHT22;47258;59.424;13.482;2022-10-16T09:34:13;12.30;99.90
46217;DHT22;47258;59.424;13.482;2022-10-16T09:36:45;12.30;99.90
46217;DHT22;47258;59.424;13.482;2022-10-16T09:39:12;12.30;99.90
46217;DHT22;47258;59.424;13.482;2022-10-16T09:41:41;12.30;99.90
46217;DHT22;47258;59.424;13.482;2022-10-16T09:44:19;12.20;99.90
46217;DHT22;47258;59.424;13.482;2022-10-16T09:46:48;12.20;99.90
46217;DHT22;47258;59.424;13.482;2022-10-16T09:49:21;12.20;99.90
46217;DHT22;47258;59.424;13.482;2022-10-16T09:51:50;12.20;99.90
46217;DHT22;47258;59.424;13.482;2022-10-16T09:54:19;12.20;99.90
46217;DHT22;47258;59.424;13.482;2022-10-16T09:56:47;12.20;99.90
46217;DHT22;47258;59.424;13.482;2022-10-16T09:59:18;12.20;99.90
46217;DHT22;47258;59.424;13.482;2022-10-16T10:01:47;12.20;99.90
46217;DHT22;47258;59.424;13.482;2022-10-16T10:04:15;12.20;99.90
46217;DHT22;47258;59.424;13.482;2022-10-16T10:06:45;12.20;99.90
46217;DHT22;47258;59.424;13.482;2022-10-16T10:09:19;12.30;99.90
46217;DHT22;47258;59.424;13.482;2022-10-16T10:11:52;12.30;99.90
46217;DHT22;47258;59.424;13.482;2022-10-16T10:14:24;12.30;99.90
46217;DHT22;47258;59.424;13.482;2022-10-16T10:17:01;12.30;99.90
46217;DHT22;47258;59.424;13.482;2022-10-16T10:19:28;12.30;99.90
46217;DHT22;47258;59.424;13.482;2022-10-16T10:21:56;12.30;99.90
46217;DHT22;47258;59.424;13.482;2022-10-16T10:24:23;12.30;99.90
46217;DHT22;47258;59.424;13.482;2022-10-16T10:26:54;12.30;99.90
46217;DHT22;47258;59.424;13.482;2022-10-16T10:29:32;12.30;99.90
46217;DHT22;47258;59.424;13.482;2022-10-16T10:32:05;12.30;99.90
46217;DHT22;47258;59.424;13.482;2022-10-16T10:34:56;12.20;99.90
46217;DHT22;47258;59.424;13.482;2022-10-16T10:37:37;12.20;99.90
46217;DHT22;47258;59.424;13.482;2022-10-16T10:40:15;12.20;99.90
46217;DHT22;47258;59.424;13.482;2022-10-16T10:42:51;12.10;99.90
46217;DHT22;47258;59.424;13.482;2022-10-16T10:45:26;12.10;99.90
46217;DHT22;47258;59.424;13.482;2022-10-16T10:48:05;12.10;99.90
46217;DHT22;47258;59.424;13.482;2022-10-16T10:50:39;12.00;99.90
46217;DHT22;47258;59.424;13.482;2022-10-16T10:53:18;12.00;99.90
46217;DHT22;47258;59.424;13.482;2022-10-16T10:55:54;12.00;99.90
46217;DHT22;47258;59.424;13.482;2022-10-16T11:01:33;11.90;99.90
46217;DHT22;47258;59.424;13.482;2022-10-16T11:04:16;11.90;99.90
46217;DHT22;47258;59.424;13.482;2022-10-16T11:06:48;11.90;99.90
46217;DHT22;47258;59.424;13.482;2022-10-16T11:09:21;11.90;99.90
46217;DHT22;47258;59.424;13.482;2022-10-16T11:11:52;11.80;99.90
46217;DHT22;47258;59.424;13.482;2022-10-16T11:14:25;11.90;99.90
46217;DHT22;47258;59.424;13.482;2022-10-16T11:16:58;11.90;99.90
46217;DHT22;47258;59.424;13.482;2022-10-16T11:19:34;11.90;99.90
46217;DHT22;47258;59.424;13.482;2022-10-16T11:22:06;11.90;99.90
46217;DHT22;47258;59.424;13.482;2022-10-16T11:24:44;11.80;99.90
46217;DHT22;47258;59.424;13.482;2022-10-16T11:27:16;11.80;99.90
46217;DHT22;47258;59.424;13.482;2022-10-16T11:29:49;11.80;99.90
46217;DHT22;47258;59.424;13.482;2022-10-16T11:32:22;11.80;99.90
46217;DHT22;47258;59.424;13.482;2022-10-16T11:34:53;11.80;99.90
46217;DHT22;47258;59.424;13.482;2022-10-16T11:37:27;11.80;99.90
46217;DHT22;47258;59.424;13.482;2022-10-16T11:40:05;11.80;99.90
46217;DHT22;47258;59.424;13.482;2022-10-16T11:42:46;11.80;99.90
46217;DHT22;47258;59.424;13.482;2022-10-16T11:45:24;11.80;99.90
46217;DHT22;47258;59.424;13.482;2022-10-16T11:48:00;11.80;99.90
46217;DHT22;47258;59.424;13.482;2022-10-16T11:50:34;11.80;99.90
46217;DHT22;47258;59.424;13.482;2022-10-16T11:53:04;11.70;99.90
46217;DHT22;47258;59.424;13.482;2022-10-16T11:55:39;11.70;99.90
46217;DHT22;47258;59.424;13.482;2022-10-16T11:58:09;11.60;99.90
46217;DHT22;47258;59.424;13.482;2022-10-16T12:00:45;11.40;99.90
46217;DHT22;47258;59.424;13.482;2022-10-16T12:03:19;11.30;99.90
46217;DHT22;47258;59.424;13.482;2022-10-16T12:05:59;11.30;99.90
46217;DHT22;47258;59.424;13.482;2022-10-16T12:08:27;11.20;99.90
46217;DHT22;47258;59.424;13.482;2022-10-16T12:11:06;11.20;99.90
46217;DHT22;47258;59.424;13.482;2022-10-16T12:13:35;11.10;99.90
46217;DHT22;47258;59.424;13.482;2022-10-16T12:16:19;11.10;99.90
46217;DHT22;47258;59.424;13.482;2022-10-16T12:18:48;11.20;99.90
46217;DHT22;47258;59.424;13.482;2022-10-16T12:21:16;11.30;99.90
46217;DHT22;47258;59.424;13.482;2022-10-16T12:23:49;11.50;99.90
46217;DHT22;47258;59.424;13.482;2022-10-16T12:26:26;11.60;99.90
46217;DHT22;47258;59.424;13.482;2022-10-16T12:28:54;11.80;99.90
46217;DHT22;47258;59.424;13.482;2022-10-16T12:31:21;11.90;99.90
46217;DHT22;47258;59.424;13.482;2022-10-16T12:33:57;11.90;99.90
46217;DHT22;47258;59.424;13.482;2022-10-16T12:36:29;12.00;99.90
46217;DHT22;47258;59.424;13.482;2022-10-16T12:38:57;12.00;99.90
46217;DHT22;47258;59.424;13.482;2022-10-16T12:41:28;11.90;99.90
46217;DHT22;47258;59.424;13.482;2022-10-16T12:43:56;11.90;99.90
46217;DHT22;47258;59.424;13.482;2022-10-16T12:46:38;11.90;99.90
46217;DHT22;47258;59.424;13.482;2022-10-16T12:49:22;11.90;99.90
46217;DHT22;47258;59.424;13.482;2022-10-16T12:51:51;11.80;99.90
46217;DHT22;47258;59.424;13.482;2022-10-16T12:54:26;11.80;99.90
46217;DHT22;47258;59.424;13.482;2022-10-16T12:57:19;11.70;99.90
46217;DHT22;47258;59.424;13.482;2022-10-16T12:59:57;11.70;99.90
46217;DHT22;47258;59.424;13.482;2022-10-16T13:02:56;11.60;99.90
46217;DHT22;47258;59.424;13.482;2022-10-16T13:05:35;11.60;99.90
46217;DHT22;47258;59.424;13.482;2022-10-16T13:08:18;11.50;99.90
46217;DHT22;47258;59.424;13.482;2022-10-16T13:10:59;11.50;99.90
46217;DHT22;47258;59.424;13.482;2022-10-16T13:13:41;11.40;99.90
46217;DHT22;47258;59.424;13.482;2022-10-16T13:16:19;11.40;99.90
46217;DHT22;47258;59.424;13.482;2022-10-16T13:19:03;11.40;99.90
46217;DHT22;47258;59.424;13.482;2022-10-16T13:21:42;11.40;99.90
46217;DHT22;47258;59.424;13.482;2022-10-16T13:24:19;11.30;99.90
46217;DHT22;47258;59.424;13.482;2022-10-16T13:26:53;11.30;99.90
46217;DHT22;47258;59.424;13.482;2022-10-16T13:29:24;11.30;99.90
46217;DHT22;47258;59.424;13.482;2022-10-16T13:31:56;11.20;99.90
46217;DHT22;47258;59.424;13.482;2022-10-16T13:34:25;11.20;99.90
46217;DHT22;47258;59.424;13.482;2022-10-16T13:36:52;11.10;99.90
46217;DHT22;47258;59.424;13.482;2022-10-16T13:39:24;11.10;99.90
46217;DHT22;47258;59.424;13.482;2022-10-16T13:42:05;11.10;99.90
46217;DHT22;47258;59.424;13.482;2022-10-16T13:44:39;11.00;99.90
46217;DHT22;47258;59.424;13.482;2022-10-16T13:47:16;11.00;99.90
46217;DHT22;47258;59.424;13.482;2022-10-16T13:49:43;10.90;99.90
46217;DHT22;47258;59.424;13.482;2022-10-16T13:52:17;10.80;99.90
46217;DHT22;47258;59.424;13.482;2022-10-16T13:54:44;10.80;99.90
46217;DHT22;47258;59.424;13.482;2022-10-16T13:57:13;10.70;99.90
46217;DHT22;47258;59.424;13.482;2022-10-16T13:59:41;10.60;99.90
46217;DHT22;47258;59.424;13.482;2022-10-16T14:02:17;10.60;99.90
46217;DHT22;47258;59.424;13.482;2022-10-16T14:04:46;10.50;99.90
46217;DHT22;47258;59.424;13.482;2022-10-16T14:07:20;10.50;99.90
46217;DHT22;47258;59.424;13.482;2022-10-16T14:09:50;10.40;99.90
46217;DHT22;47258;59.424;13.482;2022-10-16T14:12:17;10.40;99.90
46217;DHT22;47258;59.424;13.482;2022-10-16T14:14:47;10.30;99.90
46217;DHT22;47258;59.424;13.482;2022-10-16T14:17:15;10.30;99.90
46217;DHT22;47258;59.424;13.482;2022-10-16T14:19:46;10.30;99.90
46217;DHT22;47258;59.424;13.482;2022-10-16T14:22:25;10.30;99.90
46217;DHT22;47258;59.424;13.482;2022-10-16T14:24:53;10.20;99.90
46217;DHT22;47258;59.424;13.482;2022-10-16T14:27:29;10.20;99.90
46217;DHT22;47258;59.424;13.482;2022-10-16T14:30:15;10.20;99.90
46217;DHT22;47258;59.424;13.482;2022-10-16T14:32:53;10.20;99.90
46217;DHT22;47258;59.424;13.482;2022-10-16T14:35:26;10.20;99.90
46217;DHT22;47258;59.424;13.482;2022-10-16T14:37:54;10.10;99.90
46217;DHT22;47258;59.424;13.482;2022-10-16T14:40:24;10.10;99.90
46217;DHT22;47258;59.424;13.482;2022-10-16T14:42:51;10.10;99.90
46217;DHT22;47258;59.424;13.482;2022-10-16T14:45:22;10.10;99.90
46217;DHT22;47258;59.424;13.482;2022-10-16T14:47:51;10.10;99.90
46217;DHT22;47258;59.424;13.482;2022-10-16T14:50:19;10.00;99.90
46217;DHT22;47258;59.424;13.482;2022-10-16T14:52:46;10.00;99.90
46217;DHT22;47258;59.424;13.482;2022-10-16T14:55:15;10.00;99.90
46217;DHT22;47258;59.424;13.482;2022-10-16T14:57:43;10.00;99.90
46217;DHT22;47258;59.424;13.482;2022-10-16T15:00:17;10.00;99.90
46217;DHT22;47258;59.424;13.482;2022-10-16T15:02:47;10.00;99.90
46217;DHT22;47258;59.424;13.482;2022-10-16T15:05:15;10.00;99.90
46217;DHT22;47258;59.424;13.482;2022-10-16T15:07:43;10.00;99.90
46217;DHT22;47258;59.424;13.482;2022-10-16T15:10:10;10.00;99.90
46217;DHT22;47258;59.424;13.482;2022-10-16T15:12:37;10.00;99.90
46217;DHT22;47258;59.424;13.482;2022-10-16T15:15:31;9.90;99.90
46217;DHT22;47258;59.424;13.482;2022-10-16T15:18:00;9.90;99.90
46217;DHT22;47258;59.424;13.482;2022-10-16T15:20:30;9.80;99.90
46217;DHT22;47258;59.424;13.482;2022-10-16T15:22:59;9.80;99.90
46217;DHT22;47258;59.424;13.482;2022-10-16T15:25:31;9.80;99.90
46217;DHT22;47258;59.424;13.482;2022-10-16T15:27:59;9.70;99.90
46217;DHT22;47258;59.424;13.482;2022-10-16T15:30:27;9.70;99.90
46217;DHT22;47258;59.424;13.482;2022-10-16T15:32:54;9.70;99.90
46217;DHT22;47258;59.424;13.482;2022-10-16T15:35:23;9.70;99.90
46217;DHT22;47258;59.424;13.482;2022-10-16T15:37:50;9.70;99.90
46217;DHT22;47258;59.424;13.482;2022-10-16T15:40:18;9.60;99.90
46217;DHT22;47258;59.424;13.482;2022-10-16T15:42:46;9.60;99.90